Deer Park, Washington
Current Conditions -  °F | °C
As of 9:39 PM on Monday 26 Jan 2015 (Local Time) from KDEW Reporting Station
Haze Haze  
Wind Chill: 33°   Ceiling: Unl
Heat Index: 33°   Visibility: 2mi
Dew Point: 32°   Wind: 3mph
Humidity: 96%   Direction: 350°N
Pressure: 30"   Gusts: NA
Location:  47.95°N, 117.48°W
Report Text: KDEW 270539Z AUTO 35003KT 2SM BR CLR 01/00 A3000 RMK AO2 T00060000
Loading
Personal Weather Stations






























Interactive Weather Map New forecast layout! Learn more

10-Day Weather Forecast

Advertisements
Track Severe Weather on mobile